createdAt,value
2019-05-05T00:00:41.163Z,6.90
2019-05-05T00:03:17.123Z,6.80
2019-05-05T00:05:46.492Z,6.90
2019-05-05T00:08:15.631Z,6.80
2019-05-05T00:10:57.098Z,7.00
2019-05-05T00:13:34.637Z,7.00
2019-05-05T00:16:15.880Z,6.90
2019-05-05T00:18:45.331Z,7.00
2019-05-05T00:21:15.194Z,7.00
2019-05-05T00:23:45.112Z,7.00
2019-05-05T00:26:14.937Z,6.90
2019-05-05T00:28:44.787Z,6.50
2019-05-05T00:31:15.033Z,6.50
2019-05-05T00:33:44.852Z,6.70
2019-05-05T00:36:14.648Z,6.60
2019-05-05T00:38:44.470Z,6.70
2019-05-05T00:41:14.837Z,6.80
2019-05-05T00:43:45.157Z,6.90
2019-05-05T00:46:20.567Z,7.00
2019-05-05T00:48:49.556Z,7.10
2019-05-05T00:51:18.507Z,7.00
2019-05-05T00:53:47.403Z,7.00
2019-05-05T00:56:16.395Z,6.90
2019-05-05T00:58:50.730Z,6.60
2019-05-05T01:01:37.659Z,6.60
2019-05-05T01:04:08.808Z,6.80
2019-05-05T01:06:37.751Z,6.90
2019-05-05T01:09:08.858Z,7.00
2019-05-05T01:11:37.883Z,7.00
2019-05-05T01:14:06.843Z,6.70
2019-05-05T01:16:35.733Z,6.60
2019-05-05T01:19:04.660Z,6.70
2019-05-05T01:21:34.928Z,6.60
2019-05-05T01:24:05.173Z,6.70
2019-05-05T01:26:37.498Z,6.70
2019-05-05T01:29:08.076Z,6.80
2019-05-05T01:31:36.983Z,6.40
2019-05-05T01:34:30.937Z,6.00
2019-05-05T01:37:08.173Z,6.20
2019-05-05T01:39:46.347Z,6.10
2019-05-05T01:42:16.902Z,6.20
2019-05-05T01:44:45.872Z,6.20
2019-05-05T01:47:14.929Z,6.20
2019-05-05T01:49:45.295Z,6.30
2019-05-05T01:52:14.998Z,6.30
2019-05-05T01:54:44.720Z,6.50
2019-05-05T01:57:14.779Z,6.50
2019-05-05T01:59:44.951Z,6.40
2019-05-05T02:02:14.753Z,6.40
2019-05-05T02:04:44.767Z,6.40
2019-05-05T02:07:14.660Z,6.20
2019-05-05T02:09:44.905Z,6.10
2019-05-05T02:12:15.903Z,6.20
2019-05-05T02:14:44.762Z,6.40
2019-05-05T02:17:14.428Z,6.20
2019-05-05T02:19:44.317Z,6.20
2019-05-05T02:22:14.722Z,6.20
2019-05-05T02:24:44.535Z,6.20
2019-05-05T02:27:14.631Z,6.20
2019-05-05T02:29:49.095Z,6.20
2019-05-05T02:32:45.163Z,6.20
2019-05-05T02:35:16.441Z,6.10
2019-05-05T02:37:46.507Z,6.00
2019-05-05T02:40:16.350Z,5.90
2019-05-05T02:42:46.993Z,5.80
2019-05-05T02:45:35.369Z,5.70
2019-05-05T02:48:09.807Z,5.70
2019-05-05T02:51:00.177Z,5.60
2019-05-05T02:53:39.265Z,5.80
2019-05-05T02:56:15.354Z,5.80
2019-05-05T02:58:45.191Z,5.90
2019-05-05T03:01:34.190Z,5.90
2019-05-05T03:04:04.178Z,5.90
2019-05-05T03:06:34.723Z,5.80
2019-05-05T03:09:05.566Z,5.80
2019-05-05T03:11:35.816Z,5.70
2019-05-05T03:14:07.089Z,5.70
2019-05-05T03:16:37.680Z,5.70
2019-05-05T03:19:08.700Z,5.70
2019-05-05T03:21:38.475Z,5.80
2019-05-05T03:24:08.566Z,5.80
2019-05-05T03:26:37.750Z,5.80
2019-05-05T03:29:09.258Z,5.70
2019-05-05T03:31:38.664Z,5.70
2019-05-05T03:34:09.285Z,5.60
2019-05-05T03:36:38.251Z,5.60
2019-05-05T03:39:09.569Z,5.50
2019-05-05T03:41:49.535Z,5.50
2019-05-05T03:44:25.458Z,5.60
2019-05-05T03:46:55.695Z,5.60
2019-05-05T03:49:25.320Z,5.60
2019-05-05T03:51:54.550Z,5.60
2019-05-05T03:54:23.915Z,5.40
2019-05-05T03:57:07.869Z,5.30
2019-05-05T03:59:39.879Z,5.40
2019-05-05T04:02:28.510Z,5.50
2019-05-05T04:05:00.424Z,5.50
2019-05-05T04:07:29.351Z,5.50
2019-05-05T04:09:58.237Z,5.50
2019-05-05T04:12:27.069Z,5.60
2019-05-05T04:14:55.914Z,5.60
2019-05-05T04:17:44.421Z,5.60
2019-05-05T04:20:28.210Z,5.60
2019-05-05T04:22:58.237Z,5.60
2019-05-05T04:25:27.352Z,5.70
2019-05-05T04:27:56.329Z,5.70
2019-05-05T04:30:25.173Z,5.60
2019-05-05T04:32:54.668Z,5.70
2019-05-05T04:35:24.673Z,5.60
2019-05-05T04:37:54.305Z,5.60
2019-05-05T04:40:24.043Z,5.60
2019-05-05T04:42:54.768Z,5.60
2019-05-05T04:45:24.230Z,5.70
2019-05-05T04:47:57.369Z,5.70
2019-05-05T04:50:34.557Z,5.60
2019-05-05T04:53:05.757Z,5.60
2019-05-05T04:55:34.712Z,5.60
2019-05-05T04:58:04.608Z,5.50
2019-05-05T05:00:34.258Z,5.50
2019-05-05T05:03:23.957Z,5.60
2019-05-05T05:06:04.095Z,5.60
2019-05-05T05:08:33.826Z,5.80
2019-05-05T05:11:03.677Z,5.80
2019-05-05T05:13:34.665Z,5.70
2019-05-05T05:16:04.532Z,5.70
2019-05-05T05:18:34.362Z,5.60
2019-05-05T05:21:04.040Z,5.70
2019-05-05T05:23:34.056Z,5.70
2019-05-05T05:26:05.076Z,5.80
2019-05-05T05:28:34.268Z,5.80
2019-05-05T05:31:03.855Z,5.90
2019-05-05T05:33:34.432Z,5.90
2019-05-05T05:36:04.126Z,5.50
2019-05-05T05:38:34.668Z,5.40
2019-05-05T05:41:25.620Z,5.40
2019-05-05T05:44:08.575Z,5.50
2019-05-05T05:46:57.177Z,5.60
2019-05-05T05:49:45.211Z,5.90
2019-05-05T05:52:19.049Z,6.20
2019-05-05T05:54:44.967Z,6.20
2019-05-05T05:57:13.886Z,6.40
2019-05-05T05:59:44.482Z,6.60
2019-05-05T06:02:15.613Z,6.60
2019-05-05T06:04:44.569Z,6.70
2019-05-05T06:07:14.206Z,6.80
2019-05-05T06:09:43.855Z,6.90
2019-05-05T06:12:14.235Z,6.80
2019-05-05T06:14:44.730Z,6.90
2019-05-05T06:17:13.955Z,6.90
2019-05-05T06:19:44.589Z,7.00
2019-05-05T06:22:17.895Z,6.90
2019-05-05T06:24:44.225Z,6.80
2019-05-05T06:27:14.283Z,6.80
2019-05-05T06:29:43.940Z,6.90
2019-05-05T06:32:14.540Z,6.90
2019-05-05T06:34:44.416Z,7.10
2019-05-05T06:37:14.488Z,7.20
2019-05-05T06:39:44.095Z,7.20
2019-05-05T06:42:34.168Z,7.20
2019-05-05T06:45:09.167Z,7.00
2019-05-05T06:47:41.142Z,7.00
2019-05-05T06:50:13.512Z,7.00
2019-05-05T06:52:45.190Z,7.00
2019-05-05T06:55:14.169Z,7.30
2019-05-05T06:57:44.443Z,7.40
2019-05-05T07:00:14.078Z,7.40
2019-05-05T07:02:44.441Z,7.50
2019-05-05T07:05:15.375Z,7.60
2019-05-05T07:07:44.215Z,7.40
2019-05-05T07:10:14.090Z,7.40
2019-05-05T07:12:44.001Z,7.70
2019-05-05T07:15:14.571Z,7.80
2019-05-05T07:17:44.321Z,7.90
2019-05-05T07:20:13.727Z,8.00
2019-05-05T07:22:58.009Z,8.10
2019-05-05T07:25:13.858Z,8.30
2019-05-05T07:27:44.231Z,8.30
2019-05-05T07:30:14.209Z,8.20
2019-05-05T07:32:44.298Z,8.30
2019-05-05T07:35:24.563Z,8.10
2019-05-05T07:37:54.434Z,8.40
2019-05-05T07:40:24.121Z,8.40
2019-05-05T07:42:54.019Z,8.50
2019-05-05T07:45:25.749Z,8.70
2019-05-05T07:47:54.434Z,8.70
2019-05-05T07:50:31.769Z,8.70
2019-05-05T07:52:54.547Z,8.70
2019-05-05T07:55:23.905Z,8.80
2019-05-05T07:57:53.804Z,8.70
2019-05-05T08:00:24.055Z,8.50
2019-05-05T08:02:54.385Z,8.70
2019-05-05T08:05:24.647Z,8.80
2019-05-05T08:07:53.999Z,8.50
2019-05-05T08:10:24.148Z,8.80
2019-05-05T08:12:54.230Z,8.90
2019-05-05T08:15:24.800Z,9.10
2019-05-05T08:18:01.576Z,9.20
2019-05-05T08:20:33.905Z,9.30
2019-05-05T08:23:04.300Z,9.30
2019-05-05T08:25:55.786Z,8.90
2019-05-05T08:28:55.853Z,8.90
2019-05-05T08:31:30.575Z,9.00
2019-05-05T08:33:59.387Z,9.30
2019-05-05T08:36:28.232Z,9.40
2019-05-05T08:38:57.071Z,9.60
2019-05-05T08:41:25.883Z,9.60
2019-05-05T08:43:54.802Z,9.50
2019-05-05T08:46:24.734Z,9.40
2019-05-05T08:48:53.872Z,9.40
2019-05-05T08:51:24.677Z,9.50
2019-05-05T08:53:54.628Z,9.80
2019-05-05T08:56:23.955Z,10.10
2019-05-05T08:58:54.512Z,9.60
2019-05-05T09:01:23.959Z,9.50
2019-05-05T09:03:53.610Z,10.00
2019-05-05T09:06:24.133Z,10.10
2019-05-05T09:08:54.789Z,10.30
2019-05-05T09:11:24.129Z,10.10
2019-05-05T09:13:53.510Z,10.30
2019-05-05T09:16:24.199Z,10.40
2019-05-05T09:19:05.667Z,10.10
2019-05-05T09:21:34.697Z,10.00
2019-05-05T09:24:25.870Z,10.40
2019-05-05T09:27:03.499Z,10.60
2019-05-05T09:29:34.951Z,10.60
2019-05-05T09:32:04.204Z,10.30
2019-05-05T09:34:34.126Z,10.70
2019-05-05T09:37:04.787Z,11.00
2019-05-05T09:39:34.544Z,11.00
2019-05-05T09:42:04.229Z,10.70
2019-05-05T09:44:34.650Z,10.60
2019-05-05T09:47:04.732Z,10.60
2019-05-05T09:49:34.048Z,10.60
2019-05-05T09:52:04.899Z,10.60
2019-05-05T09:54:34.583Z,10.60
2019-05-05T09:57:04.626Z,10.40
2019-05-05T09:59:34.654Z,10.20
2019-05-05T10:02:04.420Z,10.50
2019-05-05T10:04:34.982Z,11.10
2019-05-05T10:07:04.553Z,11.20
2019-05-05T10:09:34.461Z,11.50
2019-05-05T10:12:04.804Z,11.90
2019-05-05T10:14:34.234Z,11.60
2019-05-05T10:17:04.850Z,11.70
2019-05-05T10:19:33.957Z,12.10
2019-05-05T10:22:04.041Z,12.10
2019-05-05T10:24:38.329Z,12.20
2019-05-05T10:27:07.246Z,12.50
2019-05-05T10:29:36.149Z,12.20
2019-05-05T10:32:05.160Z,12.30
2019-05-05T10:34:34.002Z,13.80
2019-05-05T10:37:04.201Z,16.10
2019-05-05T10:39:40.500Z,18.00
2019-05-05T10:42:09.480Z,18.00
2019-05-05T10:44:38.450Z,17.50
2019-05-05T10:47:07.276Z,16.10
2019-05-05T10:49:36.095Z,14.90
2019-05-05T10:52:04.960Z,13.60
2019-05-05T10:54:43.275Z,13.30
2019-05-05T10:57:04.407Z,13.00
2019-05-05T10:59:34.443Z,12.70
2019-05-05T11:02:04.846Z,12.90
2019-05-05T11:04:34.222Z,13.80
2019-05-05T11:07:04.198Z,15.30
2019-05-05T11:09:34.192Z,17.00
2019-05-05T11:12:03.069Z,18.50
2019-05-05T11:14:33.672Z,19.20
2019-05-05T11:17:04.155Z,17.40
2019-05-05T11:19:33.677Z,17.40
2019-05-05T11:22:02.828Z,16.40
2019-05-05T11:24:31.616Z,15.90
2019-05-05T11:27:00.415Z,14.50
2019-05-05T11:29:29.332Z,14.10
2019-05-05T11:31:59.822Z,13.80
2019-05-05T11:34:30.108Z,13.00
2019-05-05T11:37:05.613Z,15.50
2019-05-05T11:39:34.463Z,18.30
2019-05-05T11:42:04.360Z,17.50
2019-05-05T11:44:33.786Z,15.90
2019-05-05T11:47:03.706Z,14.80
2019-05-05T11:49:33.716Z,15.10
2019-05-05T11:52:04.565Z,14.70
2019-05-05T11:54:33.364Z,13.90
2019-05-05T11:57:03.784Z,13.70
2019-05-05T11:59:32.936Z,14.70
2019-05-05T12:02:03.727Z,16.10
2019-05-05T12:04:32.380Z,16.20
2019-05-05T12:07:01.400Z,16.90
2019-05-05T12:09:48.414Z,15.90
2019-05-05T12:12:17.396Z,15.10
2019-05-05T12:14:47.115Z,14.20
2019-05-05T12:17:19.354Z,13.50
2019-05-05T12:19:48.614Z,13.40
2019-05-05T12:22:17.689Z,13.70
2019-05-05T12:24:48.147Z,13.80
2019-05-05T12:27:33.987Z,13.90
2019-05-05T12:30:11.302Z,13.90
2019-05-05T12:32:40.168Z,13.90
2019-05-05T12:35:09.510Z,13.90
2019-05-05T12:37:38.448Z,13.70
2019-05-05T12:40:08.258Z,13.60
2019-05-05T12:42:37.145Z,13.50
2019-05-05T12:45:08.798Z,13.50
2019-05-05T12:47:55.607Z,13.80
2019-05-05T12:50:24.693Z,14.20
2019-05-05T12:52:54.868Z,14.20
2019-05-05T12:55:32.292Z,14.20
2019-05-05T12:57:54.742Z,14.00
2019-05-05T13:00:24.052Z,14.90
2019-05-05T13:02:53.780Z,15.60
2019-05-05T13:05:23.631Z,16.70
2019-05-05T13:07:52.975Z,15.20
2019-05-05T13:10:24.227Z,15.60
2019-05-05T13:12:54.305Z,14.40
2019-05-05T13:15:24.741Z,12.90
2019-05-05T13:17:54.313Z,12.90
2019-05-05T13:20:41.564Z,13.10
2019-05-05T13:23:21.173Z,13.60
2019-05-05T13:26:04.381Z,14.30
2019-05-05T13:28:34.425Z,13.70
2019-05-05T13:31:04.707Z,14.50
2019-05-05T13:33:37.069Z,14.00
2019-05-05T13:36:04.546Z,13.70
2019-05-05T13:38:34.352Z,14.30
2019-05-05T13:41:03.797Z,14.40
2019-05-05T13:43:34.255Z,14.20
2019-05-05T13:46:11.178Z,13.50
2019-05-05T13:48:40.020Z,13.70
2019-05-05T13:51:09.394Z,13.30
2019-05-05T13:53:38.188Z,12.90
2019-05-05T13:56:11.786Z,13.30
2019-05-05T13:58:37.865Z,13.50
2019-05-05T14:01:09.666Z,13.20
2019-05-05T14:03:37.446Z,13.40
2019-05-05T14:06:06.384Z,12.90
2019-05-05T14:08:36.382Z,12.80
2019-05-05T14:11:05.628Z,13.10
2019-05-05T14:13:34.452Z,13.10
2019-05-05T14:16:03.979Z,12.70
2019-05-05T14:18:33.189Z,13.00
2019-05-05T14:21:02.081Z,12.90
2019-05-05T14:23:34.412Z,13.30
2019-05-05T14:26:03.887Z,13.30
2019-05-05T14:28:33.999Z,13.40
2019-05-05T14:31:05.156Z,13.20
2019-05-05T14:33:59.339Z,13.40
2019-05-05T14:36:49.169Z,13.70
2019-05-05T14:39:19.333Z,13.70
2019-05-05T14:41:48.321Z,13.40
2019-05-05T14:44:17.295Z,13.30
2019-05-05T14:46:46.178Z,13.20
2019-05-05T14:49:15.237Z,13.20
2019-05-05T14:51:44.654Z,13.30
2019-05-05T14:54:14.860Z,13.40
2019-05-05T14:56:44.173Z,13.10
2019-05-05T14:59:14.284Z,13.60
2019-05-05T15:01:44.791Z,13.20
2019-05-05T15:04:15.554Z,13.30
2019-05-05T15:06:54.324Z,13.70
2019-05-05T15:09:37.274Z,13.80
2019-05-05T15:12:40.278Z,13.80
2019-05-05T15:15:09.800Z,13.40
2019-05-05T15:17:38.706Z,13.50
2019-05-05T15:20:08.160Z,13.30
2019-05-05T15:22:37.195Z,13.60
2019-05-05T15:25:06.388Z,13.80
2019-05-05T15:27:35.279Z,13.90
2019-05-05T15:30:04.929Z,13.50
2019-05-05T15:32:34.392Z,13.00
2019-05-05T15:35:04.008Z,12.80
2019-05-05T15:37:33.151Z,12.60
2019-05-05T15:40:03.881Z,12.80
2019-05-05T15:42:33.516Z,12.80
2019-05-05T15:45:03.998Z,13.10
2019-05-05T15:47:34.318Z,13.10
2019-05-05T15:50:04.495Z,13.10
2019-05-05T15:52:35.106Z,13.30
2019-05-05T15:55:05.032Z,13.10
2019-05-05T15:57:34.117Z,13.10
2019-05-05T16:00:03.123Z,12.90
2019-05-05T16:02:32.150Z,12.90
2019-05-05T16:05:01.030Z,12.90
2019-05-05T16:07:29.977Z,13.00
2019-05-05T16:09:58.831Z,13.30
2019-05-05T16:12:34.037Z,12.70
2019-05-05T16:15:13.842Z,12.60
2019-05-05T16:17:48.298Z,13.10
2019-05-05T16:20:26.611Z,13.30
2019-05-05T16:23:04.405Z,12.60
2019-05-05T16:25:33.418Z,12.90
2019-05-05T16:28:05.443Z,13.00
2019-05-05T16:30:33.850Z,12.60
2019-05-05T16:33:04.237Z,12.80
2019-05-05T16:35:34.249Z,12.90
2019-05-05T16:38:03.860Z,13.00
2019-05-05T16:40:34.020Z,13.00
2019-05-05T16:43:04.614Z,12.90
2019-05-05T16:45:34.071Z,12.90
2019-05-05T16:48:03.902Z,13.10
2019-05-05T16:50:34.089Z,13.10
2019-05-05T16:53:05.555Z,13.00
2019-05-05T16:55:55.350Z,12.90
2019-05-05T16:58:24.259Z,12.90
2019-05-05T17:00:54.402Z,12.80
2019-05-05T17:03:23.990Z,12.40
2019-05-05T17:05:54.643Z,12.40
2019-05-05T17:08:24.512Z,12.70
2019-05-05T17:10:53.625Z,12.70
2019-05-05T17:13:41.752Z,12.80
2019-05-05T17:16:29.865Z,12.60
2019-05-05T17:19:27.186Z,12.70
2019-05-05T17:22:27.536Z,12.70
2019-05-05T17:24:57.552Z,12.70
2019-05-05T17:27:26.540Z,12.70
2019-05-05T17:29:55.510Z,12.70
2019-05-05T17:32:24.935Z,12.70
2019-05-05T17:34:54.238Z,12.60
2019-05-05T17:37:23.926Z,12.50
2019-05-05T17:39:58.169Z,12.40
2019-05-05T17:42:38.491Z,12.40
2019-05-05T17:45:25.712Z,12.40
2019-05-05T17:48:04.655Z,12.40
2019-05-05T17:50:57.335Z,12.40
2019-05-05T17:53:43.749Z,12.40
2019-05-05T17:56:13.495Z,12.50
2019-05-05T17:58:44.373Z,12.50
2019-05-05T18:01:13.166Z,12.60
2019-05-05T18:03:43.661Z,12.60
2019-05-05T18:06:34.293Z,12.50
2019-05-05T18:09:11.519Z,12.50
2019-05-05T18:11:45.852Z,12.40
2019-05-05T18:14:23.924Z,12.30
2019-05-05T18:16:54.082Z,12.20
2019-05-05T18:19:24.649Z,12.10
2019-05-05T18:21:54.782Z,12.10
2019-05-05T18:24:24.400Z,11.90
2019-05-05T18:26:53.812Z,11.90
2019-05-05T18:29:24.285Z,11.80
2019-05-05T18:31:53.656Z,11.80
2019-05-05T18:34:23.622Z,11.80
2019-05-05T18:36:54.405Z,11.90
2019-05-05T18:39:24.692Z,11.90
2019-05-05T18:42:08.212Z,11.90
2019-05-05T18:44:40.182Z,11.90
2019-05-05T18:47:14.901Z,11.80
2019-05-05T18:49:42.261Z,11.70
2019-05-05T18:52:11.496Z,11.70
2019-05-05T18:54:40.629Z,11.70
2019-05-05T18:57:09.719Z,11.70
2019-05-05T18:59:41.243Z,11.60
2019-05-05T19:02:29.305Z,11.60
2019-05-05T19:05:21.120Z,11.50
2019-05-05T19:07:56.009Z,11.50
2019-05-05T19:10:25.287Z,11.50
2019-05-05T19:12:54.290Z,11.60
2019-05-05T19:15:24.414Z,11.60
2019-05-05T19:17:53.599Z,11.60
2019-05-05T19:20:35.064Z,11.60
2019-05-05T19:23:05.561Z,11.60
2019-05-05T19:25:35.518Z,11.60
2019-05-05T19:28:04.672Z,11.60
2019-05-05T19:30:36.037Z,11.50
2019-05-05T19:33:04.643Z,11.50
2019-05-05T19:35:43.559Z,11.40
2019-05-05T19:38:04.890Z,11.40
2019-05-05T19:40:34.331Z,11.40
2019-05-05T19:43:04.803Z,11.30
2019-05-05T19:45:34.524Z,11.30
2019-05-05T19:48:06.039Z,11.30
2019-05-05T19:50:41.607Z,11.30
2019-05-05T19:53:24.659Z,11.20
2019-05-05T19:55:55.069Z,11.20
2019-05-05T19:58:24.330Z,11.30
2019-05-05T20:00:56.841Z,11.30
2019-05-05T20:03:26.035Z,11.30
2019-05-05T20:05:55.293Z,11.30
2019-05-05T20:08:39.001Z,11.40
2019-05-05T20:10:56.441Z,11.30
2019-05-05T20:13:25.456Z,11.20
2019-05-05T20:16:00.711Z,11.20
2019-05-05T20:18:29.749Z,11.20
2019-05-05T20:21:03.997Z,11.10
2019-05-05T20:23:29.575Z,11.10
2019-05-05T20:25:58.591Z,11.10
2019-05-05T20:28:27.615Z,11.00
2019-05-05T20:30:56.413Z,11.10
2019-05-05T20:33:47.271Z,11.00
2019-05-05T20:36:19.479Z,11.00
2019-05-05T20:38:50.310Z,11.00
2019-05-05T20:41:20.615Z,11.00
2019-05-05T20:43:50.323Z,11.00
2019-05-05T20:46:19.302Z,11.00
2019-05-05T20:48:48.291Z,11.00
2019-05-05T20:51:17.816Z,10.90
2019-05-05T20:53:49.066Z,10.90
2019-05-05T20:56:17.626Z,10.90
2019-05-05T20:58:46.953Z,10.90
2019-05-05T21:01:16.527Z,11.00
2019-05-05T21:03:45.836Z,11.00
2019-05-05T21:06:14.960Z,10.90
2019-05-05T21:08:44.331Z,10.90
2019-05-05T21:11:14.107Z,10.90
2019-05-05T21:13:46.036Z,10.80
2019-05-05T21:16:15.225Z,10.70
2019-05-05T21:18:46.447Z,10.60
2019-05-05T21:21:20.682Z,10.60
2019-05-05T21:23:54.657Z,10.50
2019-05-05T21:26:41.772Z,10.60
2019-05-05T21:29:10.680Z,10.60
2019-05-05T21:31:39.821Z,10.60
2019-05-05T21:34:08.785Z,10.60
2019-05-05T21:36:37.799Z,10.60
2019-05-05T21:39:07.587Z,10.60
2019-05-05T21:41:36.642Z,10.50
2019-05-05T21:44:05.665Z,10.60
2019-05-05T21:46:34.781Z,10.60
2019-05-05T21:49:04.030Z,10.60
2019-05-05T21:51:55.244Z,10.60
2019-05-05T21:54:34.209Z,10.60
2019-05-05T21:57:14.241Z,10.60
2019-05-05T21:59:55.231Z,10.60
2019-05-05T22:02:15.310Z,10.50
2019-05-05T22:04:44.478Z,10.40
2019-05-05T22:07:14.532Z,10.30
2019-05-05T22:09:43.571Z,10.20
2019-05-05T22:12:13.520Z,10.10
2019-05-05T22:14:43.996Z,10.10
2019-05-05T22:17:14.617Z,10.10
2019-05-05T22:19:54.185Z,10.00
2019-05-05T22:22:24.646Z,10.00
2019-05-05T22:24:54.118Z,10.00
2019-05-05T22:27:23.816Z,10.10
2019-05-05T22:29:54.107Z,10.00
2019-05-05T22:32:24.936Z,10.00
2019-05-05T22:34:54.032Z,9.90
2019-05-05T22:37:23.636Z,10.00
2019-05-05T22:39:54.262Z,9.90
2019-05-05T22:42:24.673Z,9.80
2019-05-05T22:44:53.658Z,9.70
2019-05-05T22:47:23.647Z,9.70
2019-05-05T22:49:53.909Z,9.80
2019-05-05T22:52:25.251Z,9.80
2019-05-05T22:54:53.562Z,9.80
2019-05-05T22:57:24.605Z,9.80
2019-05-05T22:59:54.114Z,9.80
2019-05-05T23:02:25.243Z,9.80
2019-05-05T23:05:05.296Z,9.80
2019-05-05T23:07:34.943Z,9.90
2019-05-05T23:10:04.660Z,9.70
2019-05-05T23:12:35.022Z,9.50
2019-05-05T23:15:05.019Z,9.30
2019-05-05T23:17:43.772Z,9.30
2019-05-05T23:20:30.434Z,9.30
2019-05-05T23:23:07.641Z,9.20
2019-05-05T23:25:39.922Z,9.10
2019-05-05T23:28:08.779Z,9.00
2019-05-05T23:30:41.117Z,9.00
2019-05-05T23:33:08.172Z,9.10
2019-05-05T23:35:37.056Z,9.00
2019-05-05T23:38:05.827Z,9.10
2019-05-05T23:40:34.592Z,9.10
2019-05-05T23:43:04.510Z,9.10
2019-05-05T23:45:34.083Z,9.10
2019-05-05T23:48:03.696Z,9.10
2019-05-05T23:50:33.820Z,9.10
2019-05-05T23:53:02.899Z,9.10
2019-05-05T23:55:31.817Z,9.00
2019-05-05T23:58:00.717Z,9.00
